createdAt,value
2022-10-30T00:02:29.970Z,10.00
2022-10-30T00:05:20.057Z,9.97
2022-10-30T00:08:09.400Z,10.20
2022-10-30T00:10:57.818Z,10.53
2022-10-30T00:13:46.406Z,10.00
2022-10-30T00:16:36.232Z,9.37
2022-10-30T00:19:24.670Z,9.97
2022-10-30T00:22:13.138Z,9.40
2022-10-30T00:25:01.579Z,10.10
2022-10-30T00:27:50.011Z,9.33
2022-10-30T00:30:38.638Z,10.90
2022-10-30T00:33:28.493Z,9.73
2022-10-30T00:36:16.908Z,9.63
2022-10-30T00:39:06.187Z,8.70
2022-10-30T00:41:54.636Z,8.50
2022-10-30T00:44:46.830Z,8.53
2022-10-30T00:47:37.669Z,7.40
2022-10-30T00:50:29.136Z,8.77
2022-10-30T00:53:20.079Z,8.60
2022-10-30T00:56:09.519Z,8.20
2022-10-30T00:59:00.752Z,7.90
2022-10-30T01:01:49.399Z,8.97
2022-10-30T01:04:39.090Z,9.10
2022-10-30T01:07:28.884Z,9.10
2022-10-30T01:10:18.647Z,8.70
2022-10-30T01:13:07.745Z,9.77
2022-10-30T01:16:08.686Z,8.87
2022-10-30T01:19:02.240Z,8.90
2022-10-30T01:21:59.581Z,8.10
2022-10-30T01:24:57.488Z,9.03
2022-10-30T01:27:55.422Z,9.10
2022-10-30T01:30:55.904Z,8.27
2022-10-30T01:33:55.789Z,8.13
2022-10-30T01:36:47.970Z,7.90
2022-10-30T01:39:38.443Z,8.30
2022-10-30T01:42:48.478Z,8.70
2022-10-30T01:45:47.976Z,8.23
2022-10-30T01:48:52.854Z,8.83
2022-10-30T01:51:52.438Z,8.93
2022-10-30T01:54:46.609Z,9.17
2022-10-30T01:57:38.585Z,9.30
2022-10-30T02:00:28.648Z,9.50
2022-10-30T02:03:17.147Z,9.77
2022-10-30T02:06:06.537Z,9.40
2022-10-30T02:08:56.300Z,9.13
2022-10-30T02:11:45.555Z,8.97
2022-10-30T02:14:38.542Z,9.40
2022-10-30T02:17:28.698Z,8.30
2022-10-30T02:20:19.250Z,8.53
2022-10-30T02:23:08.966Z,8.50
2022-10-30T02:25:57.676Z,7.67
2022-10-30T02:28:46.084Z,9.00
2022-10-30T02:31:34.467Z,7.63
2022-10-30T02:34:22.952Z,8.20
2022-10-30T02:37:12.720Z,8.00
2022-10-30T02:40:01.165Z,8.23
2022-10-30T02:42:53.189Z,8.13
2022-10-30T02:45:41.615Z,7.93
2022-10-30T02:48:31.067Z,7.30
2022-10-30T02:51:19.501Z,7.60
2022-10-30T02:54:09.384Z,8.00
2022-10-30T02:56:57.806Z,8.30
2022-10-30T02:59:46.230Z,8.07
2022-10-30T03:02:34.782Z,7.50
2022-10-30T03:05:23.208Z,8.40
2022-10-30T03:08:11.621Z,7.90
2022-10-30T03:11:02.422Z,8.73
2022-10-30T03:13:51.051Z,10.33
2022-10-30T03:16:39.826Z,9.10
2022-10-30T03:19:28.240Z,8.17
2022-10-30T03:22:16.679Z,8.30
2022-10-30T03:25:05.659Z,8.47
2022-10-30T03:27:55.793Z,7.50
2022-10-30T03:30:44.514Z,8.83
2022-10-30T03:33:33.325Z,8.47
2022-10-30T03:36:21.711Z,8.57
2022-10-30T03:39:10.237Z,8.73
2022-10-30T03:41:58.642Z,8.23
2022-10-30T03:44:48.413Z,6.90
2022-10-30T03:47:36.798Z,7.67
2022-10-30T03:50:25.246Z,7.40
2022-10-30T03:53:13.992Z,8.37
2022-10-30T03:56:04.831Z,8.60
2022-10-30T03:58:53.226Z,7.63
2022-10-30T04:01:43.188Z,7.30
2022-10-30T04:04:31.745Z,7.50
2022-10-30T04:07:20.153Z,8.13
2022-10-30T04:10:09.196Z,6.60
2022-10-30T04:13:00.982Z,7.47
2022-10-30T04:15:56.423Z,7.70
2022-10-30T04:18:47.597Z,7.20
2022-10-30T04:21:36.022Z,8.17
2022-10-30T04:24:24.628Z,8.27
2022-10-30T04:27:13.433Z,7.50
2022-10-30T04:30:01.846Z,8.17
2022-10-30T04:32:51.363Z,7.03
2022-10-30T04:35:43.572Z,6.43
2022-10-30T04:38:32.159Z,8.00
2022-10-30T04:41:20.583Z,7.60
2022-10-30T04:44:09.173Z,6.80
2022-10-30T04:46:57.803Z,7.50
2022-10-30T04:49:46.242Z,8.23
2022-10-30T04:52:36.047Z,6.60
2022-10-30T04:55:24.462Z,6.97
2022-10-30T04:58:13.679Z,6.83
2022-10-30T05:01:03.328Z,7.50
2022-10-30T05:03:54.695Z,7.77
2022-10-30T05:06:43.549Z,6.83
2022-10-30T05:09:33.383Z,6.20
2022-10-30T05:12:22.226Z,7.03
2022-10-30T05:15:11.267Z,7.03
2022-10-30T05:18:00.059Z,7.07
2022-10-30T05:20:48.714Z,6.87
2022-10-30T05:23:37.183Z,6.90
2022-10-30T05:26:27.001Z,6.17
2022-10-30T05:29:15.404Z,6.73
2022-10-30T05:32:03.975Z,7.03
2022-10-30T05:34:52.443Z,7.10
2022-10-30T05:37:40.889Z,6.90
2022-10-30T05:40:29.536Z,7.70
2022-10-30T05:43:19.302Z,7.93
2022-10-30T05:46:07.802Z,7.00
2022-10-30T05:48:56.235Z,8.23
2022-10-30T05:51:44.705Z,7.80
2022-10-30T05:54:33.396Z,7.27
2022-10-30T05:57:21.811Z,7.50
2022-10-30T06:00:13.065Z,6.50
2022-10-30T06:03:02.172Z,7.47
2022-10-30T06:05:51.142Z,6.87
2022-10-30T06:08:39.695Z,7.70
2022-10-30T06:11:28.089Z,7.00
2022-10-30T06:14:16.480Z,8.10
2022-10-30T06:17:06.219Z,8.67
2022-10-30T06:19:54.635Z,7.17
2022-10-30T06:22:43.051Z,6.97
2022-10-30T06:25:37.791Z,8.13
2022-10-30T06:28:28.997Z,8.47
2022-10-30T06:31:17.467Z,7.80
2022-10-30T06:34:07.272Z,7.93
2022-10-30T06:36:55.790Z,7.67
2022-10-30T06:39:44.271Z,8.13
2022-10-30T06:42:33.037Z,7.17
2022-10-30T06:45:22.699Z,8.30
2022-10-30T06:48:11.141Z,7.60
2022-10-30T06:51:02.883Z,7.57
2022-10-30T06:53:51.305Z,8.00
2022-10-30T06:56:39.928Z,7.23
2022-10-30T06:59:28.397Z,8.07
2022-10-30T07:02:17.309Z,6.50
2022-10-30T07:05:06.456Z,6.83
2022-10-30T07:07:58.428Z,7.63
2022-10-30T07:10:46.835Z,6.47
2022-10-30T07:13:35.240Z,7.37
2022-10-30T07:16:23.780Z,6.30
2022-10-30T07:19:12.203Z,6.77
2022-10-30T07:22:01.673Z,6.07
2022-10-30T07:24:51.454Z,6.57
2022-10-30T07:27:43.265Z,5.93
2022-10-30T07:30:31.698Z,5.83
2022-10-30T07:33:20.165Z,7.47
2022-10-30T07:36:09.588Z,6.60
2022-10-30T07:38:58.027Z,6.73
2022-10-30T07:41:50.255Z,6.73
2022-10-30T07:44:38.932Z,7.10
2022-10-30T07:47:27.339Z,5.83
2022-10-30T07:50:15.830Z,5.50
2022-10-30T07:53:04.243Z,6.30
2022-10-30T07:55:52.735Z,6.17
2022-10-30T07:58:45.452Z,5.70
2022-10-30T08:01:34.376Z,5.60
2022-10-30T08:04:26.547Z,5.33
2022-10-30T08:07:14.969Z,4.83
2022-10-30T08:10:07.485Z,5.30
2022-10-30T08:12:56.003Z,5.00
2022-10-30T08:15:45.945Z,6.30
2022-10-30T08:18:34.390Z,5.50
2022-10-30T08:21:22.842Z,5.13
2022-10-30T08:24:11.437Z,5.63
2022-10-30T08:26:59.887Z,5.03
2022-10-30T08:29:48.348Z,5.30
2022-10-30T08:32:38.105Z,5.00
2022-10-30T08:35:26.729Z,5.30
2022-10-30T08:38:15.258Z,5.10
2022-10-30T08:41:03.846Z,4.97
2022-10-30T08:43:52.276Z,4.40
2022-10-30T08:46:40.764Z,4.43
2022-10-30T08:49:30.523Z,4.97
2022-10-30T08:52:19.098Z,5.07
2022-10-30T08:55:08.866Z,4.83
2022-10-30T08:57:57.301Z,5.17
2022-10-30T09:00:45.732Z,5.70
2022-10-30T09:03:34.174Z,5.20
2022-10-30T09:06:24.011Z,5.40
2022-10-30T09:09:13.311Z,6.07
2022-10-30T09:12:01.793Z,5.10
2022-10-30T09:14:50.245Z,5.23
2022-10-30T09:17:38.645Z,4.70
2022-10-30T09:20:27.669Z,4.70
2022-10-30T09:23:17.451Z,5.20
2022-10-30T09:26:06.090Z,5.43
2022-10-30T09:28:54.590Z,5.73
2022-10-30T09:31:43.029Z,4.87
2022-10-30T09:34:31.819Z,5.00
2022-10-30T09:37:20.265Z,5.43
2022-10-30T09:40:12.148Z,5.80
2022-10-30T09:43:04.623Z,5.53
2022-10-30T09:46:06.306Z,5.37
2022-10-30T09:49:03.071Z,4.83
2022-10-30T09:52:05.308Z,4.80
2022-10-30T09:55:00.560Z,6.17
2022-10-30T09:57:56.003Z,5.60
2022-10-30T10:00:49.449Z,5.30
2022-10-30T10:06:49.903Z,5.00
2022-10-30T10:09:39.833Z,5.20
2022-10-30T10:12:31.575Z,5.80
2022-10-30T10:15:33.043Z,5.93
2022-10-30T10:18:26.701Z,5.60
2022-10-30T10:21:22.453Z,4.70
2022-10-30T10:24:19.617Z,5.53
2022-10-30T10:27:12.993Z,4.63
2022-10-30T10:30:04.877Z,4.90
2022-10-30T10:33:05.767Z,5.17
2022-10-30T10:36:07.351Z,4.20
2022-10-30T10:39:13.270Z,4.40
2022-10-30T10:42:11.970Z,5.17
2022-10-30T10:45:16.131Z,3.90
2022-10-30T10:48:18.601Z,4.10
2022-10-30T10:51:10.192Z,3.63
2022-10-30T10:54:01.266Z,4.40
2022-10-30T10:56:51.284Z,5.00
2022-10-30T10:59:43.227Z,5.10
2022-10-30T11:02:39.861Z,4.20
2022-10-30T11:05:34.763Z,4.53
2022-10-30T11:08:27.189Z,3.60
2022-10-30T11:11:15.658Z,4.10
2022-10-30T11:14:09.699Z,4.57
2022-10-30T11:17:06.691Z,4.13
2022-10-30T11:20:01.247Z,4.23
2022-10-30T11:22:52.399Z,4.23
2022-10-30T11:25:40.828Z,4.70
2022-10-30T11:28:36.870Z,4.43
2022-10-30T11:31:27.707Z,4.47
2022-10-30T11:34:25.841Z,4.60
2022-10-30T11:37:31.067Z,4.63
2022-10-30T11:40:22.432Z,4.57
2022-10-30T11:43:12.440Z,5.20
2022-10-30T11:46:00.977Z,4.27
2022-10-30T11:48:54.614Z,4.20
2022-10-30T11:51:47.758Z,3.90
2022-10-30T11:54:37.732Z,5.10
2022-10-30T11:57:32.575Z,4.20
2022-10-30T12:00:22.665Z,4.97
2022-10-30T12:03:29.346Z,4.30
2022-10-30T12:06:19.631Z,4.60
2022-10-30T12:09:13.168Z,4.03
2022-10-30T12:12:11.779Z,3.80
2022-10-30T12:15:11.979Z,4.70
2022-10-30T12:18:02.320Z,9.10
2022-10-30T12:20:54.367Z,4.47
2022-10-30T12:23:42.820Z,4.37
2022-10-30T12:26:31.415Z,4.70
2022-10-30T12:29:24.299Z,4.37
2022-10-30T12:32:19.527Z,4.80
2022-10-30T12:35:17.294Z,4.20
2022-10-30T12:38:07.851Z,3.40
2022-10-30T12:41:01.436Z,4.30
2022-10-30T12:43:54.937Z,4.20
2022-10-30T12:46:48.715Z,4.20
2022-10-30T12:49:42.053Z,4.63
2022-10-30T12:52:35.201Z,4.50
2022-10-30T12:55:26.542Z,4.77
2022-10-30T12:58:20.172Z,4.80
2022-10-30T13:01:17.146Z,4.13
2022-10-30T13:04:10.684Z,5.00
2022-10-30T13:07:05.815Z,4.37
2022-10-30T13:10:03.754Z,3.83
2022-10-30T13:12:57.698Z,4.87
2022-10-30T13:15:48.635Z,4.70
2022-10-30T13:18:37.608Z,4.63
2022-10-30T13:21:31.542Z,4.27
2022-10-30T13:24:24.874Z,4.00
2022-10-30T13:27:17.524Z,4.03
2022-10-30T13:30:09.648Z,4.00
2022-10-30T13:33:04.782Z,3.90
2022-10-30T13:35:56.845Z,4.57
2022-10-30T13:38:52.656Z,4.73
2022-10-30T13:41:51.975Z,3.90
2022-10-30T13:44:58.085Z,4.20
2022-10-30T13:47:56.824Z,4.30
2022-10-30T13:51:15.264Z,4.87
2022-10-30T13:54:09.729Z,4.63
2022-10-30T13:57:04.882Z,4.50
2022-10-30T14:00:00.606Z,4.90
2022-10-30T14:03:24.683Z,4.77
2022-10-30T14:06:22.642Z,4.50
2022-10-30T14:09:16.676Z,4.50
2022-10-30T14:12:38.683Z,4.70
2022-10-30T14:15:33.569Z,5.70
2022-10-30T14:18:33.728Z,4.60
2022-10-30T14:21:39.883Z,5.07
2022-10-30T14:24:29.253Z,5.00
2022-10-30T14:27:21.750Z,4.30
2022-10-30T14:30:19.151Z,5.20
2022-10-30T14:33:35.522Z,4.00
2022-10-30T14:36:25.468Z,5.07
2022-10-30T14:39:30.863Z,4.50
2022-10-30T14:42:24.726Z,5.50
2022-10-30T14:45:16.249Z,5.07
2022-10-30T14:48:08.952Z,4.40
2022-10-30T14:51:05.660Z,5.40
2022-10-30T14:53:59.809Z,4.57
2022-10-30T14:56:49.345Z,5.10
2022-10-30T14:59:39.434Z,5.03
2022-10-30T15:02:39.558Z,5.37
2022-10-30T15:05:44.523Z,4.30
2022-10-30T15:08:50.770Z,4.53
2022-10-30T15:11:52.447Z,4.80
2022-10-30T15:14:58.723Z,5.43
2022-10-30T15:17:48.594Z,5.10
2022-10-30T15:20:38.616Z,5.40
2022-10-30T15:23:29.797Z,5.20
2022-10-30T15:26:22.554Z,5.40
2022-10-30T15:29:18.205Z,10.10
2022-10-30T15:32:16.553Z,11.27
2022-10-30T15:35:11.052Z,10.20
2022-10-30T15:38:01.002Z,11.57
2022-10-30T15:40:49.536Z,8.00
2022-10-30T15:43:41.997Z,6.70
2022-10-30T15:46:30.496Z,7.03
2022-10-30T15:49:25.454Z,7.00
2022-10-30T15:52:16.955Z,5.83
2022-10-30T15:55:08.717Z,6.10
2022-10-30T15:58:04.582Z,6.10
2022-10-30T16:00:59.007Z,5.33
2022-10-30T16:03:52.674Z,5.50
2022-10-30T16:06:49.439Z,5.67
2022-10-30T16:09:38.019Z,5.90
2022-10-30T16:12:27.733Z,6.13
2022-10-30T16:15:26.734Z,5.73
2022-10-30T16:18:19.730Z,7.80
2022-10-30T16:21:10.591Z,7.60
2022-10-30T16:24:00.891Z,8.10
2022-10-30T16:27:03.282Z,8.03
2022-10-30T16:29:53.133Z,7.07
2022-10-30T16:32:42.117Z,7.23
2022-10-30T16:35:31.958Z,6.97
2022-10-30T16:38:20.915Z,7.20
2022-10-30T16:41:13.253Z,6.83
2022-10-30T16:44:11.756Z,8.37
2022-10-30T16:47:05.385Z,7.83
2022-10-30T16:49:55.387Z,7.77
2022-10-30T16:52:45.566Z,7.30
2022-10-30T16:55:35.919Z,9.67
2022-10-30T16:58:26.780Z,9.37
2022-10-30T17:01:15.434Z,8.80
2022-10-30T17:04:05.659Z,7.80
2022-10-30T17:07:05.036Z,8.37
2022-10-30T17:09:56.831Z,8.00
2022-10-30T17:12:45.335Z,9.47
2022-10-30T17:15:34.353Z,7.43
2022-10-30T17:18:30.537Z,7.93
2022-10-30T17:21:21.312Z,8.33
2022-10-30T17:24:20.348Z,7.73
2022-10-30T17:27:28.658Z,7.67
2022-10-30T17:30:39.761Z,8.20
2022-10-30T17:33:35.123Z,8.17
2022-10-30T17:36:23.554Z,7.80
2022-10-30T17:39:12.131Z,7.93
2022-10-30T17:42:00.558Z,7.23
2022-10-30T17:44:50.390Z,7.27
2022-10-30T17:47:40.583Z,8.17
2022-10-30T17:50:29.014Z,7.30
2022-10-30T17:53:21.535Z,8.07
2022-10-30T17:56:14.503Z,7.30
2022-10-30T17:59:03.015Z,8.60
2022-10-30T18:01:53.147Z,9.77
2022-10-30T18:04:43.029Z,10.50
2022-10-30T18:07:31.477Z,9.83
2022-10-30T18:10:19.956Z,8.73
2022-10-30T18:13:10.010Z,10.80
2022-10-30T18:15:59.158Z,9.90
2022-10-30T18:18:50.037Z,9.90
2022-10-30T18:21:38.538Z,9.67
2022-10-30T18:24:27.049Z,11.70
2022-10-30T18:27:15.483Z,10.47
2022-10-30T18:30:04.308Z,12.40
2022-10-30T18:32:52.912Z,13.83
2022-10-30T18:35:42.947Z,14.27
2022-10-30T18:38:31.503Z,13.20
2022-10-30T18:41:25.931Z,13.67
2022-10-30T18:44:15.879Z,13.53
2022-10-30T18:47:06.677Z,12.50
2022-10-30T18:49:56.643Z,12.30
2022-10-30T18:52:46.620Z,12.20
2022-10-30T18:55:37.028Z,12.07
2022-10-30T18:58:25.564Z,11.30
2022-10-30T19:01:15.345Z,11.20
2022-10-30T19:04:04.470Z,11.20
2022-10-30T19:06:53.214Z,11.27
2022-10-30T19:09:43.346Z,10.20
2022-10-30T19:12:35.472Z,10.47
2022-10-30T19:15:26.842Z,10.20
2022-10-30T19:18:15.677Z,10.33
2022-10-30T19:21:07.302Z,10.87
2022-10-30T19:23:59.592Z,11.17
2022-10-30T19:26:49.426Z,9.60
2022-10-30T19:29:37.907Z,10.80
2022-10-30T19:32:26.401Z,11.87
2022-10-30T19:35:15.668Z,12.20
2022-10-30T19:38:07.929Z,12.73
2022-10-30T19:40:56.443Z,11.80
2022-10-30T19:43:46.486Z,11.10
2022-10-30T19:46:35.467Z,10.30
2022-10-30T19:49:24.138Z,10.40
2022-10-30T19:52:15.815Z,10.17
2022-10-30T19:55:04.502Z,11.30
2022-10-30T19:57:53.416Z,11.63
2022-10-30T20:00:44.869Z,10.67
2022-10-30T20:03:33.365Z,11.50
2022-10-30T20:06:21.922Z,11.07
2022-10-30T20:09:11.387Z,10.80
2022-10-30T20:11:59.851Z,10.93
2022-10-30T20:14:48.321Z,10.00
2022-10-30T20:17:38.119Z,11.40
2022-10-30T20:20:28.476Z,10.30
2022-10-30T20:23:17.014Z,11.30
2022-10-30T20:26:07.420Z,12.50
2022-10-30T20:28:56.135Z,11.77
2022-10-30T20:31:44.627Z,10.60
2022-10-30T20:34:34.483Z,10.73
2022-10-30T20:37:23.524Z,10.47
2022-10-30T20:40:14.080Z,11.57
2022-10-30T20:43:03.362Z,10.83
2022-10-30T20:45:51.904Z,9.53
2022-10-30T20:48:40.402Z,10.10
2022-10-30T20:51:30.230Z,9.73
2022-10-30T20:54:18.981Z,9.10
2022-10-30T20:57:07.534Z,9.20
2022-10-30T20:59:56.142Z,8.40
2022-10-30T21:02:44.663Z,9.70
2022-10-30T21:05:49.849Z,9.13
2022-10-30T21:08:39.711Z,9.17
2022-10-30T21:11:28.260Z,9.70
2022-10-30T21:14:20.417Z,9.60
2022-10-30T21:17:09.747Z,9.00
2022-10-30T21:19:58.189Z,8.80
2022-10-30T21:22:46.652Z,8.83
2022-10-30T21:25:36.709Z,8.43
2022-10-30T21:28:25.170Z,8.90
2022-10-30T21:31:14.050Z,7.70
2022-10-30T21:34:02.599Z,8.00
2022-10-30T21:36:51.065Z,9.83
2022-10-30T21:39:39.873Z,7.50
2022-10-30T21:42:29.695Z,8.60
2022-10-30T21:45:18.563Z,9.70
2022-10-30T21:48:07.641Z,8.50
2022-10-30T21:50:56.106Z,7.70
2022-10-30T21:53:45.287Z,8.43
2022-10-30T21:56:36.048Z,8.27
2022-10-30T21:59:26.285Z,7.20
2022-10-30T22:02:15.114Z,8.00
2022-10-30T22:05:04.223Z,6.90
2022-10-30T22:07:54.308Z,7.10
2022-10-30T22:10:44.458Z,7.37
2022-10-30T22:13:32.959Z,7.30
2022-10-30T22:16:23.016Z,8.03
2022-10-30T22:19:13.326Z,7.73
2022-10-30T22:22:01.847Z,7.67
2022-10-30T22:24:50.509Z,7.50
2022-10-30T22:27:39.060Z,7.97
2022-10-30T22:30:27.580Z,7.07
2022-10-30T22:33:17.437Z,7.63
2022-10-30T22:36:07.525Z,6.93
2022-10-30T22:38:57.726Z,7.40
2022-10-30T22:41:46.186Z,6.87
2022-10-30T22:44:34.598Z,7.00
2022-10-30T22:47:23.017Z,8.00
2022-10-30T22:50:12.817Z,7.60
2022-10-30T22:53:01.320Z,6.70
2022-10-30T22:55:49.877Z,7.30
2022-10-30T22:58:38.454Z,8.23
2022-10-30T23:01:29.174Z,6.20
2022-10-30T23:04:17.682Z,6.77
2022-10-30T23:07:07.486Z,6.80
2022-10-30T23:09:55.872Z,6.60
2022-10-30T23:12:44.352Z,6.13
2022-10-30T23:15:33.264Z,6.57
2022-10-30T23:18:21.776Z,7.10
2022-10-30T23:21:13.206Z,6.20
2022-10-30T23:24:05.563Z,6.60
2022-10-30T23:26:54.780Z,5.80
2022-10-30T23:29:43.260Z,5.87
2022-10-30T23:32:32.348Z,6.10
2022-10-30T23:35:20.861Z,6.30
2022-10-30T23:38:09.334Z,6.70
2022-10-30T23:40:59.114Z,5.97
2022-10-30T23:43:47.568Z,6.00
2022-10-30T23:46:36.632Z,5.30
2022-10-30T23:49:25.524Z,5.50
2022-10-30T23:52:15.606Z,6.73
2022-10-30T23:55:04.218Z,6.60
2022-10-30T23:57:54.004Z,6.30
